Time;durP1;ratioP1;P1;durP2;ratioP2;P2;SDS_P1;SDS_P2;PMS_P1;PMS_P2;Temp;Humidity;BMP_temperature;BMP_pressure;BME280_temperature;BME280_humidity;BME280_pressure;Samples;Min_cycle;Max_cycle;Signal;HPM_P1;HPM_P2
2021/12/06 00:02:25;;;;;;;1.25;0.93;;;5.80;99.90;;;;;;6098564;23;20006;-91
2021/12/06 00:04:51;;;;;;;1.10;0.80;;;5.80;99.90;;;;;;6100063;23;19999;-89
2021/12/06 00:07:21;;;;;;;1.13;0.90;;;5.80;99.90;;;;;;6098287;23;20378;-87
2021/12/06 00:09:47;;;;;;;1.45;0.95;;;5.90;99.90;;;;;;6076143;23;20003;-89
2021/12/06 00:12:15;;;;;;;0.60;0.60;;;5.90;99.90;;;;;;6102304;23;20052;-88
2021/12/06 00:14:42;;;;;;;1.35;0.60;;;5.90;99.90;;;;;;6102236;23;20002;-90
2021/12/06 00:17:13;;;;;;;0.50;0.50;;;5.90;99.90;;;;;;6099556;23;19999;-89
2021/12/06 00:19:41;;;;;;;0.63;0.63;;;5.90;99.90;;;;;;6099922;23;20442;-89
2021/12/06 00:22:12;;;;;;;1.38;0.85;;;5.90;99.90;;;;;;6099194;23;20014;-90
2021/12/06 00:24:38;;;;;;;0.75;0.70;;;5.90;99.90;;;;;;6099280;23;20002;-90
2021/12/06 00:27:04;;;;;;;1.73;0.63;;;6.00;99.90;;;;;;6099682;23;20006;-93
2021/12/06 00:29:30;;;;;;;1.48;0.75;;;6.00;99.90;;;;;;6100019;23;20086;-89
2021/12/06 00:31:56;;;;;;;0.73;0.63;;;6.00;99.90;;;;;;6100224;23;20050;-91
2021/12/06 00:34:24;;;;;;;0.70;0.65;;;6.00;99.90;;;;;;6101827;23;20002;-93
2021/12/06 00:36:54;;;;;;;2.90;0.68;;;6.00;99.90;;;;;;6102194;23;20038;-92
2021/12/06 00:39:21;;;;;;;0.65;0.65;;;6.10;99.90;;;;;;6101121;23;20002;-92
2021/12/06 00:41:48;;;;;;;1.70;0.60;;;6.00;99.90;;;;;;6078185;23;20025;-90
2021/12/06 00:44:14;;;;;;;1.38;0.80;;;6.20;99.90;;;;;;6104407;23;20352;-92
2021/12/06 00:46:40;;;;;;;0.73;0.68;;;6.20;99.90;;;;;;6107545;23;20034;-94
2021/12/06 00:49:08;;;;;;;0.57;0.50;;;6.30;99.90;;;;;;6102460;23;20164;-88
2021/12/06 00:51:34;;;;;;;1.00;0.60;;;6.30;99.90;;;;;;6102169;23;20003;-93
2021/12/06 00:54:00;;;;;;;0.50;0.50;;;6.30;99.90;;;;;;6100573;23;20069;-90
2021/12/06 00:56:26;;;;;;;0.60;0.60;;;6.30;99.90;;;;;;6072265;23;20021;-94
2021/12/06 00:58:52;;;;;;;0.70;0.70;;;6.30;99.90;;;;;;6100831;23;19998;-91
2021/12/06 01:01:17;;;;;;;1.13;0.80;;;6.30;99.90;;;;;;6100364;23;20438;-90
2021/12/06 01:03:43;;;;;;;0.93;0.65;;;6.20;99.90;;;;;;6078348;23;20003;-93
2021/12/06 01:06:11;;;;;;;2.78;0.60;;;6.20;99.90;;;;;;6103128;23;20002;-90
2021/12/06 01:08:38;;;;;;;1.15;0.80;;;6.20;99.90;;;;;;6102345;23;19999;-91
2021/12/06 01:11:05;;;;;;;0.70;0.70;;;6.20;99.90;;;;;;6079800;23;20007;-92
2021/12/06 01:13:31;;;;;;;1.75;0.60;;;6.10;99.90;;;;;;6104208;23;20007;-89
2021/12/06 01:15:58;;;;;;;1.17;0.85;;;6.10;99.90;;;;;;6100708;23;19999;-91
2021/12/06 01:18:24;;;;;;;0.68;0.50;;;6.10;99.90;;;;;;6098767;23;20009;-90
2021/12/06 01:21:05;;;;;;;0.50;0.50;;;6.10;99.90;;;;;;6098918;23;20014;-87
2021/12/06 01:23:45;;;;;;;0.60;0.60;;;6.10;99.90;;;;;;6101814;23;20003;-89
2021/12/06 01:26:33;;;;;;;0.82;0.80;;;6.00;99.90;;;;;;6099017;23;20486;-91
2021/12/06 01:39:47;;;;;;;0.95;0.57;;;6.00;99.90;;;;;;6100171;23;20056;-90
2021/12/06 01:42:13;;;;;;;3.03;0.70;;;5.90;99.90;;;;;;6098718;23;20505;-89
2021/12/06 01:44:41;;;;;;;0.57;0.57;;;5.80;99.90;;;;;;6097779;23;20033;-89
2021/12/06 01:47:22;;;;;;;0.50;0.50;;;5.80;99.90;;;;;;6075616;23;20010;-93
2021/12/06 01:50:03;;;;;;;0.65;0.50;;;5.80;99.90;;;;;;6077091;23;20002;-90
2021/12/06 01:52:32;;;;;;;0.65;0.50;;;5.90;99.90;;;;;;6075176;23;20002;-89
2021/12/06 01:54:59;;;;;;;0.50;0.50;;;5.90;99.90;;;;;;6099915;23;20479;-90
2021/12/06 01:57:27;;;;;;;0.55;0.55;;;5.80;99.90;;;;;;6100511;23;20003;-88
2021/12/06 01:59:53;;;;;;;1.58;0.70;;;5.70;99.90;;;;;;6073979;23;20006;-91
2021/12/06 02:02:21;;;;;;;0.68;0.60;;;5.70;99.90;;;;;;6099115;23;20078;-90
2021/12/06 02:04:47;;;;;;;0.77;0.70;;;5.70;99.90;;;;;;6098155;23;20025;-90
2021/12/06 02:07:16;;;;;;;0.80;0.80;;;5.70;99.90;;;;;;6097577;23;20483;-90
2021/12/06 02:09:44;;;;;;;0.70;0.50;;;5.70;99.90;;;;;;6097972;23;20002;-92
2021/12/06 02:12:11;;;;;;;0.60;0.60;;;5.70;99.90;;;;;;6079337;23;20006;-93
2021/12/06 02:17:16;;;;;;;1.80;0.88;;;5.60;99.90;;;;;;6098899;23;20093;-88
2021/12/06 02:19:49;;;;;;;1.08;0.70;;;5.70;99.90;;;;;;6097298;23;20139;-90
2021/12/06 02:22:26;;;;;;;0.70;0.65;;;5.60;99.90;;;;;;6096873;23;20037;-87
2021/12/06 02:24:55;;;;;;;0.82;0.80;;;5.60;99.90;;;;;;6096725;23;20053;-87
2021/12/06 02:27:23;;;;;;;0.60;0.60;;;5.60;99.90;;;;;;6097046;23;20018;-89
2021/12/06 02:29:50;;;;;;;1.60;0.80;;;5.60;99.90;;;;;;6097973;23;20005;-90
2021/12/06 02:32:17;;;;;;;0.70;0.50;;;5.60;99.90;;;;;;6098077;23;19998;-91
2021/12/06 02:34:46;;;;;;;1.00;0.90;;;5.60;99.90;;;;;;6097580;23;20598;-89
2021/12/06 02:37:13;;;;;;;0.82;0.82;;;5.60;99.90;;;;;;6098287;23;20006;-89
2021/12/06 02:39:39;;;;;;;1.70;0.90;;;5.60;99.90;;;;;;6073381;23;20346;-89
2021/12/06 02:42:08;;;;;;;0.80;0.80;;;5.50;99.90;;;;;;6073849;23;20025;-89
2021/12/06 02:44:34;;;;;;;1.52;0.80;;;5.50;99.90;;;;;;6097954;23;19999;-89
2021/12/06 02:46:59;;;;;;;0.68;0.68;;;5.60;99.90;;;;;;6097573;23;20016;-90
2021/12/06 02:49:25;;;;;;;0.95;0.70;;;5.50;99.90;;;;;;6097285;23;20002;-89
2021/12/06 02:51:51;;;;;;;0.88;0.80;;;5.60;99.90;;;;;;6097218;23;20486;-89
2021/12/06 02:54:21;;;;;;;1.00;0.85;;;5.60;99.90;;;;;;6097511;23;20021;-91
2021/12/06 02:59:17;;;;;;;0.93;0.80;;;5.80;99.90;;;;;;6097297;23;20034;-88
2021/12/06 03:01:49;;;;;;;1.05;0.70;;;5.70;99.90;;;;;;6097353;23;20014;-85
2021/12/06 03:04:15;;;;;;;1.48;0.73;;;5.80;99.90;;;;;;6099899;23;20002;-90
2021/12/06 03:06:44;;;;;;;0.63;0.63;;;5.80;99.90;;;;;;6098693;23;20006;-91
2021/12/06 03:09:13;;;;;;;1.42;0.85;;;5.90;99.90;;;;;;6071382;23;20026;-88
2021/12/06 03:11:41;;;;;;;1.38;0.80;;;5.80;99.90;;;;;;6076630;23;20089;-88
2021/12/06 03:14:11;;;;;;;1.50;0.90;;;5.80;99.90;;;;;;6075534;23;20006;-91
2021/12/06 03:16:37;;;;;;;0.60;0.60;;;5.80;99.90;;;;;;6101090;23;20006;-87
2021/12/06 03:19:05;;;;;;;1.13;1.00;;;5.80;99.90;;;;;;6077257;23;20002;-88
2021/12/06 03:21:32;;;;;;;0.80;0.80;;;5.90;99.90;;;;;;6102669;23;20098;-91
2021/12/06 03:23:58;;;;;;;0.98;0.90;;;5.90;99.90;;;;;;6101724;23;20439;-92
2021/12/06 03:26:26;;;;;;;1.83;0.90;;;5.90;99.90;;;;;;6077421;23;20455;-90
2021/12/06 03:28:52;;;;;;;0.60;0.60;;;5.90;99.90;;;;;;6104000;23;20003;-93
2021/12/06 03:31:18;;;;;;;0.85;0.85;;;5.90;99.90;;;;;;6100188;23;19998;-91
2021/12/06 03:33:46;;;;;;;1.33;1.23;;;5.90;99.90;;;;;;6073966;23;20014;-89
2021/12/06 03:36:13;;;;;;;1.13;1.02;;;5.80;99.90;;;;;;6074174;23;20010;-91
2021/12/06 03:38:40;;;;;;;1.30;0.98;;;5.90;99.90;;;;;;6073661;23;20367;-88
2021/12/06 03:41:07;;;;;;;1.45;1.10;;;5.90;99.90;;;;;;6103021;23;20323;-90
2021/12/06 03:43:34;;;;;;;1.67;1.23;;;5.90;99.90;;;;;;6103070;23;20438;-89
2021/12/06 03:46:01;;;;;;;1.63;0.85;;;5.90;99.90;;;;;;6105497;23;20010;-90
2021/12/06 03:48:26;;;;;;;1.05;1.02;;;5.90;99.90;;;;;;6103909;23;20339;-91
2021/12/06 03:50:52;;;;;;;1.00;0.90;;;5.90;99.90;;;;;;6100082;23;20002;-90
2021/12/06 03:53:18;;;;;;;2.10;1.00;;;5.90;99.90;;;;;;6102347;23;20058;-90
2021/12/06 03:55:45;;;;;;;1.92;1.00;;;5.90;99.90;;;;;;6076785;23;20010;-92
2021/12/06 03:58:10;;;;;;;1.70;1.15;;;5.80;99.90;;;;;;6102752;23;20006;-92
2021/12/06 04:00:37;;;;;;;1.17;1.08;;;5.80;99.90;;;;;;6076129;23;20025;-92
2021/12/06 04:03:04;;;;;;;1.30;0.95;;;5.80;99.90;;;;;;6075369;23;20009;-91
2021/12/06 04:05:30;;;;;;;1.13;1.00;;;5.80;99.90;;;;;;6101519;23;20089;-93
2021/12/06 04:07:56;;;;;;;2.53;1.00;;;5.80;99.90;;;;;;6077192;23;20022;-94
2021/12/06 04:10:25;;;;;;;1.20;0.90;;;5.80;99.90;;;;;;6101653;23;20081;-92
2021/12/06 04:12:55;;;;;;;1.25;0.98;;;5.80;99.90;;;;;;6102657;23;20010;-91
2021/12/06 04:15:21;;;;;;;1.10;0.98;;;5.80;99.90;;;;;;6100854;23;20003;-91
2021/12/06 04:17:47;;;;;;;1.38;1.02;;;5.70;99.90;;;;;;6075729;23;20426;-90
2021/12/06 04:20:13;;;;;;;1.15;0.93;;;5.70;99.90;;;;;;6101527;23;20005;-91
2021/12/06 04:22:40;;;;;;;2.38;1.08;;;5.70;99.90;;;;;;6076960;23;20437;-93
2021/12/06 04:25:09;;;;;;;1.00;0.90;;;5.70;99.90;;;;;;6104045;23;19999;-94
2021/12/06 04:27:35;;;;;;;3.58;1.02;;;5.80;99.90;;;;;;6099928;23;20166;-91
2021/12/06 04:30:03;;;;;;;1.38;1.00;;;5.70;99.90;;;;;;6100727;23;20085;-89
2021/12/06 04:32:29;;;;;;;1.73;1.23;;;5.70;99.90;;;;;;6074342;23;20077;-90
2021/12/06 04:34:55;;;;;;;0.98;0.88;;;5.70;99.90;;;;;;6099590;23;20052;-88
2021/12/06 04:37:21;;;;;;;1.05;0.90;;;5.70;99.90;;;;;;6074326;23;20338;-91
2021/12/06 04:39:47;;;;;;;1.67;0.80;;;5.70;99.90;;;;;;6099660;23;19998;-90
2021/12/06 04:42:13;;;;;;;2.85;1.05;;;5.70;99.90;;;;;;6099891;23;20018;-91
2021/12/06 04:44:38;;;;;;;0.98;0.85;;;5.70;99.90;;;;;;6099756;23;20082;-91
2021/12/06 04:47:05;;;;;;;1.30;1.00;;;5.70;99.90;;;;;;6099289;23;20082;-92
2021/12/06 04:49:31;;;;;;;0.90;0.85;;;5.70;99.90;;;;;;6098431;23;20045;-93
2021/12/06 04:52:00;;;;;;;0.98;0.90;;;5.70;99.90;;;;;;6098701;23;19998;-90
2021/12/06 04:54:30;;;;;;;1.33;1.15;;;5.70;99.90;;;;;;6101233;23;20007;-91
2021/12/06 04:57:10;;;;;;;1.15;1.05;;;5.70;99.90;;;;;;6103276;23;20018;-93
2021/12/06 04:59:44;;;;;;;1.23;0.98;;;5.70;99.90;;;;;;6102570;23;20082;-90
2021/12/06 05:02:15;;;;;;;1.45;1.23;;;5.80;99.90;;;;;;6102467;23;20196;-91
2021/12/06 05:04:47;;;;;;;0.95;0.82;;;5.80;99.90;;;;;;6104194;23;20002;-91
2021/12/06 05:07:24;;;;;;;1.10;1.00;;;5.70;99.90;;;;;;6105126;23;20042;-92
2021/12/06 05:09:50;;;;;;;1.50;1.02;;;5.70;99.90;;;;;;6105108;23;19998;-90
2021/12/06 05:12:19;;;;;;;2.28;1.30;;;5.70;99.90;;;;;;6102412;23;20037;-90
2021/12/06 05:14:45;;;;;;;0.90;0.90;;;5.80;99.90;;;;;;6076029;23;20517;-91
2021/12/06 05:17:11;;;;;;;0.88;0.88;;;5.80;99.90;;;;;;6100622;23;20086;-89
2021/12/06 05:19:37;;;;;;;1.20;1.10;;;5.80;99.90;;;;;;6101151;23;20010;-91
2021/12/06 05:22:04;;;;;;;2.72;1.02;;;5.80;99.90;;;;;;6100306;23;20041;-89
2021/12/06 05:24:30;;;;;;;1.00;0.90;;;5.80;99.90;;;;;;6101245;23;20074;-89
2021/12/06 05:26:56;;;;;;;1.80;1.08;;;5.70;99.90;;;;;;6099930;23;20006;-90
2021/12/06 05:29:26;;;;;;;1.23;1.08;;;5.70;99.90;;;;;;6101208;23;20505;-92
2021/12/06 05:31:56;;;;;;;0.98;0.98;;;5.80;99.90;;;;;;6101323;23;20003;-91
2021/12/06 05:34:31;;;;;;;1.17;0.93;;;5.80;99.90;;;;;;6102673;23;20002;-90
2021/12/06 05:36:57;;;;;;;1.88;1.02;;;5.80;99.90;;;;;;6076738;23;20010;-91
2021/12/06 05:39:27;;;;;;;1.77;0.93;;;5.80;99.90;;;;;;6106285;23;20070;-92
2021/12/06 05:41:52;;;;;;;2.42;1.38;;;5.90;99.90;;;;;;6104014;23;20110;-90
2021/12/06 05:44:18;;;;;;;1.08;0.80;;;5.90;99.90;;;;;;6102595;23;20002;-90
2021/12/06 05:46:44;;;;;;;2.15;0.88;;;6.00;99.90;;;;;;6102799;23;20003;-91
2021/12/06 05:49:10;;;;;;;1.05;1.05;;;6.00;99.90;;;;;;6078462;23;20421;-91
2021/12/06 05:51:35;;;;;;;1.02;0.70;;;5.90;99.90;;;;;;6102113;23;19998;-92
2021/12/06 05:54:02;;;;;;;1.27;0.77;;;6.00;99.90;;;;;;6075344;23;20058;-91
2021/12/06 05:56:28;;;;;;;0.82;0.82;;;6.00;99.90;;;;;;6102163;23;20027;-92
2021/12/06 05:58:53;;;;;;;1.00;0.90;;;6.00;99.90;;;;;;6076878;23;20002;-92
2021/12/06 06:01:23;;;;;;;1.05;0.88;;;6.00;99.90;;;;;;6102905;23;20431;-91
2021/12/06 06:03:49;;;;;;;1.30;1.20;;;6.00;99.90;;;;;;6077432;23;20638;-90
2021/12/06 06:06:15;;;;;;;1.33;0.93;;;6.00;99.90;;;;;;6076185;23;20081;-89
2021/12/06 06:08:41;;;;;;;2.08;1.10;;;6.00;99.90;;;;;;6102578;23;19998;-91
2021/12/06 06:11:06;;;;;;;0.85;0.85;;;6.00;99.90;;;;;;6076632;23;20007;-88
2021/12/06 06:13:32;;;;;;;0.90;0.80;;;6.00;99.90;;;;;;6103224;23;20002;-89
2021/12/06 06:15:58;;;;;;;1.75;1.17;;;6.00;99.90;;;;;;6101794;23;20006;-89
2021/12/06 06:18:24;;;;;;;1.20;1.02;;;6.00;99.90;;;;;;6100469;23;19998;-93
2021/12/06 06:20:52;;;;;;;0.90;0.90;;;5.90;99.90;;;;;;6104756;23;20010;-91
2021/12/06 06:23:19;;;;;;;1.25;1.05;;;5.90;99.90;;;;;;6102143;23;20009;-87
2021/12/06 06:25:45;;;;;;;1.88;1.17;;;5.90;99.90;;;;;;6098404;23;20077;-88
2021/12/06 06:28:11;;;;;;;1.13;0.90;;;5.90;99.90;;;;;;6098062;23;20002;-91
2021/12/06 06:30:37;;;;;;;1.00;0.88;;;5.90;99.90;;;;;;6099180;23;20021;-86
2021/12/06 06:33:03;;;;;;;1.90;1.27;;;6.00;99.90;;;;;;6098052;23;20003;-87
2021/12/06 06:35:30;;;;;;;0.90;0.90;;;6.10;99.90;;;;;;6099724;23;20435;-88
2021/12/06 06:37:56;;;;;;;1.77;1.13;;;6.10;99.90;;;;;;6099003;23;20355;-88
2021/12/06 06:40:22;;;;;;;0.85;0.85;;;6.10;99.90;;;;;;6100218;23;20009;-87
2021/12/06 06:42:50;;;;;;;1.52;1.10;;;6.00;99.90;;;;;;6097896;23;20407;-87
2021/12/06 06:45:19;;;;;;;1.10;1.00;;;6.10;99.90;;;;;;6074366;23;20175;-87
2021/12/06 06:47:46;;;;;;;0.95;0.75;;;6.20;99.90;;;;;;6073897;23;20006;-87
2021/12/06 06:50:12;;;;;;;2.15;1.00;;;6.20;99.90;;;;;;6074640;23;20029;-89
2021/12/06 06:52:38;;;;;;;1.83;1.27;;;6.20;99.90;;;;;;6100133;23;20082;-85
2021/12/06 06:55:05;;;;;;;0.88;0.88;;;6.20;99.90;;;;;;6070924;23;20077;-82
2021/12/06 06:57:32;;;;;;;1.27;1.02;;;6.20;99.90;;;;;;6095522;23;20110;-82
2021/12/06 06:59:58;;;;;;;2.92;1.08;;;6.20;99.90;;;;;;6095455;23;20033;-83
2021/12/06 07:02:23;;;;;;;2.90;1.38;;;6.20;99.90;;;;;;6095547;23;20007;-84
2021/12/06 07:04:51;;;;;;;1.25;1.15;;;6.20;99.90;;;;;;6096114;23;20005;-87
2021/12/06 07:07:18;;;;;;;6.25;2.15;;;6.20;99.90;;;;;;6096836;23;20465;-82
2021/12/06 07:09:44;;;;;;;8.18;1.77;;;6.20;99.90;;;;;;6070153;23;20311;-82
2021/12/06 07:12:15;;;;;;;1.73;1.50;;;6.20;99.90;;;;;;6069987;23;20021;-82
2021/12/06 07:14:43;;;;;;;1.87;1.67;;;6.20;99.90;;;;;;6069992;23;20007;-82
2021/12/06 07:17:09;;;;;;;2.42;1.60;;;6.30;99.90;;;;;;6094621;23;20227;-81
2021/12/06 07:19:35;;;;;;;1.63;1.52;;;6.30;99.90;;;;;;6095535;23;20463;-82
2021/12/06 07:22:01;;;;;;;1.20;1.10;;;6.30;99.90;;;;;;6094942;23;20014;-83
2021/12/06 07:24:27;;;;;;;1.85;1.60;;;6.30;99.90;;;;;;6094942;23;20014;-83
2021/12/06 07:26:53;;;;;;;1.88;1.38;;;6.40;99.90;;;;;;6069158;23;20342;-82
2021/12/06 07:29:19;;;;;;;1.70;1.60;;;6.40;99.90;;;;;;6069417;23;20078;-83
2021/12/06 07:31:45;;;;;;;1.85;1.27;;;6.40;99.90;;;;;;6095071;23;20049;-82
2021/12/06 07:34:10;;;;;;;2.08;1.60;;;6.40;99.90;;;;;;6095366;23;19991;-81
2021/12/06 07:36:36;;;;;;;2.17;1.23;;;6.40;99.90;;;;;;6069524;23;20038;-82
2021/12/06 07:39:03;;;;;;;2.17;1.40;;;6.50;99.90;;;;;;6068870;23;20355;-82
2021/12/06 07:41:29;;;;;;;2.42;1.45;;;6.60;99.90;;;;;;6066515;23;20022;-82
2021/12/06 07:44:00;;;;;;;2.67;1.35;;;6.60;99.90;;;;;;6066799;23;20025;-82
2021/12/06 07:46:26;;;;;;;3.22;1.80;;;6.60;99.90;;;;;;6066647;23;20014;-84
2021/12/06 07:48:53;;;;;;;3.25;1.45;;;6.60;99.90;;;;;;6092259;23;20033;-85
2021/12/06 07:51:23;;;;;;;1.67;1.02;;;6.60;99.90;;;;;;6066922;23;20010;-83
2021/12/06 07:53:49;;;;;;;2.08;1.52;;;6.60;99.90;;;;;;6065748;23;20005;-83
2021/12/06 07:56:15;;;;;;;2.67;1.52;;;6.60;99.90;;;;;;6066688;23;20082;-83
2021/12/06 07:58:41;;;;;;;1.60;1.50;;;6.60;99.90;;;;;;6066469;23;20013;-83
2021/12/06 08:01:08;;;;;;;1.05;0.98;;;6.70;99.90;;;;;;6066612;23;20022;-83
2021/12/06 08:03:33;;;;;;;1.30;1.20;;;6.70;99.90;;;;;;6066448;23;20167;-82
2021/12/06 08:06:00;;;;;;;3.63;1.20;;;6.80;99.90;;;;;;6066276;23;20045;-84
2021/12/06 08:08:29;;;;;;;1.58;1.20;;;6.90;99.90;;;;;;6066080;23;20034;-83
2021/12/06 08:11:04;;;;;;;2.03;0.98;;;7.10;99.90;;;;;;6066440;23;20010;-81
2021/12/06 08:13:32;;;;;;;2.55;1.48;;;7.10;99.90;;;;;;6066112;23;20466;-82
2021/12/06 08:16:05;;;;;;;3.10;1.30;;;7.20;99.90;;;;;;6091786;23;20013;-82
2021/12/06 08:18:31;;;;;;;3.83;1.20;;;7.30;99.90;;;;;;6066061;23;20097;-81
2021/12/06 08:20:57;;;;;;;1.20;1.10;;;7.40;99.90;;;;;;6066056;23;20403;-81
2021/12/06 08:23:23;;;;;;;1.95;1.15;;;7.40;99.90;;;;;;6091438;23;20030;-83
2021/12/06 08:25:51;;;;;;;1.23;1.13;;;7.50;99.90;;;;;;6092669;23;20069;-84
2021/12/06 08:28:18;;;;;;;1.25;1.13;;;7.60;99.90;;;;;;6066353;23;20085;-83
2021/12/06 08:30:44;;;;;;;3.85;1.20;;;7.60;99.90;;;;;;6067711;23;20007;-83
2021/12/06 08:33:12;;;;;;;1.20;1.05;;;7.70;99.90;;;;;;6067614;23;20350;-83
2021/12/06 08:35:42;;;;;;;1.10;1.00;;;7.80;99.90;;;;;;6068832;23;20010;-84
2021/12/06 08:38:09;;;;;;;1.02;0.95;;;7.90;99.90;;;;;;6068545;23;20021;-84
2021/12/06 08:40:36;;;;;;;0.60;0.60;;;8.00;99.90;;;;;;6094097;23;20052;-83
2021/12/06 08:43:02;;;;;;;1.45;0.98;;;8.00;99.90;;;;;;6067816;23;20393;-83
2021/12/06 08:45:29;;;;;;;1.30;1.20;;;8.00;99.90;;;;;;6068371;23;20018;-84
2021/12/06 08:47:56;;;;;;;1.83;1.10;;;8.10;99.90;;;;;;6068113;23;20033;-82
2021/12/06 08:50:24;;;;;;;1.42;1.05;;;8.10;99.90;;;;;;6067703;23;20003;-80
2021/12/06 08:52:52;;;;;;;0.95;0.75;;;8.10;99.90;;;;;;6093377;23;20010;-82
2021/12/06 08:55:18;;;;;;;0.70;0.70;;;8.10;99.90;;;;;;6067930;23;20114;-82
2021/12/06 08:57:45;;;;;;;1.50;1.10;;;8.10;99.90;;;;;;6068909;23;20006;-84
2021/12/06 09:00:15;;;;;;;1.83;1.20;;;8.10;99.90;;;;;;6093097;23;20014;-84
2021/12/06 09:02:41;;;;;;;1.33;1.08;;;8.20;99.90;;;;;;6068191;23;20021;-83
2021/12/06 09:05:08;;;;;;;2.25;1.25;;;8.20;99.90;;;;;;6068014;23;20010;-84
2021/12/06 09:07:34;;;;;;;1.60;0.90;;;8.20;99.90;;;;;;6067804;23;20033;-84
2021/12/06 09:10:00;;;;;;;1.40;1.05;;;8.20;99.90;;;;;;6068563;23;20065;-83
2021/12/06 09:12:29;;;;;;;1.27;0.90;;;8.20;99.90;;;;;;6093175;23;20086;-84
2021/12/06 09:15:00;;;;;;;1.40;1.08;;;8.30;99.90;;;;;;6067442;23;20050;-84
2021/12/06 09:17:27;;;;;;;3.08;1.35;;;8.30;99.90;;;;;;6068003;23;20014;-85
2021/12/06 09:19:53;;;;;;;2.35;1.20;;;8.30;99.90;;;;;;6067824;23;20018;-83
2021/12/06 09:22:19;;;;;;;1.70;1.13;;;8.30;99.90;;;;;;6093407;23;20038;-83
2021/12/06 09:24:47;;;;;;;1.23;0.82;;;8.40;99.90;;;;;;6067712;23;20006;-83
2021/12/06 09:27:13;;;;;;;1.58;0.80;;;8.40;99.90;;;;;;6067488;23;20374;-81
2021/12/06 09:29:39;;;;;;;1.42;1.10;;;8.40;99.90;;;;;;6092904;23;20042;-83
2021/12/06 09:32:10;;;;;;;1.02;0.80;;;8.50;99.90;;;;;;6093067;23;20380;-81
2021/12/06 09:34:39;;;;;;;1.55;1.05;;;8.50;99.90;;;;;;6093762;23;20006;-81
2021/12/06 09:37:05;;;;;;;1.92;1.02;;;8.60;99.90;;;;;;6067204;23;20462;-81
2021/12/06 09:39:32;;;;;;;1.45;0.60;;;8.60;99.90;;;;;;6066949;23;20010;-81
2021/12/06 09:41:58;;;;;;;1.65;0.88;;;8.70;99.90;;;;;;6092446;23;20033;-82
2021/12/06 09:44:24;;;;;;;0.70;0.70;;;8.70;99.90;;;;;;6067472;23;20006;-82
2021/12/06 09:46:50;;;;;;;1.17;0.75;;;8.70;99.90;;;;;;6092616;23;20017;-82
2021/12/06 09:49:20;;;;;;;0.65;0.60;;;8.80;99.90;;;;;;6067242;23;20005;-82
2021/12/06 09:51:51;;;;;;;1.05;0.77;;;8.80;99.90;;;;;;6066707;23;20092;-83
2021/12/06 09:54:26;;;;;;;1.95;0.95;;;8.80;99.90;;;;;;6092388;23;20003;-81
2021/12/06 09:56:53;;;;;;;0.70;0.70;;;8.80;99.90;;;;;;6092692;23;20058;-81
2021/12/06 09:59:24;;;;;;;1.92;0.90;;;8.80;99.90;;;;;;6067267;23;20093;-82
2021/12/06 10:01:57;;;;;;;2.10;1.27;;;8.80;99.90;;;;;;6067406;23;20018;-82
2021/12/06 10:04:26;;;;;;;1.23;0.60;;;8.80;99.90;;;;;;6066897;23;20011;-81
2021/12/06 10:06:53;;;;;;;1.52;1.02;;;8.80;99.90;;;;;;6093052;23;20010;-82
2021/12/06 10:09:21;;;;;;;0.75;0.70;;;8.80;99.90;;;;;;6092636;23;20007;-82
2021/12/06 10:11:47;;;;;;;1.15;0.90;;;8.90;99.90;;;;;;6067059;23;20299;-81
2021/12/06 10:14:15;;;;;;;1.00;0.90;;;8.90;99.90;;;;;;6067200;23;20081;-81
2021/12/06 10:16:42;;;;;;;1.23;0.70;;;8.90;99.90;;;;;;6067679;23;20105;-83
2021/12/06 10:19:08;;;;;;;1.17;0.95;;;8.90;99.90;;;;;;6092039;23;20030;-84
2021/12/06 10:21:37;;;;;;;0.85;0.80;;;8.90;99.90;;;;;;6092779;23;20014;-82
2021/12/06 10:24:12;;;;;;;1.40;0.75;;;8.90;99.90;;;;;;6066815;23;20010;-83
2021/12/06 10:26:38;;;;;;;0.68;0.50;;;8.90;99.90;;;;;;6092962;23;20006;-82
2021/12/06 10:29:11;;;;;;;2.65;0.90;;;8.90;99.90;;;;;;6066849;23;20006;-80
2021/12/06 10:31:43;;;;;;;0.73;0.70;;;8.90;99.90;;;;;;6092408;23;20007;-81
2021/12/06 10:34:15;;;;;;;0.40;0.40;;;8.90;99.90;;;;;;6067536;23;20009;-82
2021/12/06 10:36:41;;;;;;;3.63;1.00;;;8.80;99.90;;;;;;6067345;23;20014;-82
2021/12/06 10:39:08;;;;;;;2.28;0.80;;;8.80;99.90;;;;;;6092329;23;20024;-83
2021/12/06 10:41:36;;;;;;;1.02;0.90;;;8.90;99.90;;;;;;6067376;23;20018;-83
2021/12/06 10:44:10;;;;;;;1.10;0.80;;;9.00;99.90;;;;;;6092123;23;20022;-82
2021/12/06 10:46:43;;;;;;;1.13;0.82;;;9.10;99.90;;;;;;6066720;23;20390;-83
2021/12/06 10:49:11;;;;;;;;;;;9.10;99.90;;;;;;6067325;23;20042;-82
2021/12/06 10:51:37;;;;;;;4.00;0.98;;;9.30;99.90;;;;;;6066833;23;19901;-82
2021/12/06 10:54:16;;;;;;;0.93;0.80;;;9.40;99.90;;;;;;6065946;23;20469;-82
2021/12/06 10:56:46;;;;;;;2.08;0.80;;;9.30;99.90;;;;;;6092129;23;20006;-81
2021/12/06 10:59:27;;;;;;;1.08;0.98;;;9.30;98.60;;;;;;6092235;23;20045;-82
2021/12/06 11:01:57;;;;;;;0.85;0.70;;;9.30;98.60;;;;;;6091941;23;20037;-82
2021/12/06 11:04:26;;;;;;;0.82;0.65;;;9.50;98.60;;;;;;6091917;23;20002;-83
2021/12/06 11:06:58;;;;;;;1.08;0.80;;;9.50;98.30;;;;;;6067062;23;20101;-81
2021/12/06 11:09:27;;;;;;;0.85;0.70;;;9.40;97.30;;;;;;6066361;23;20340;-81
2021/12/06 11:11:57;;;;;;;1.40;0.80;;;9.40;96.70;;;;;;6091931;23;20138;-82
2021/12/06 11:14:35;;;;;;;1.50;0.65;;;9.30;97.30;;;;;;6092347;23;20046;-81
2021/12/06 11:17:05;;;;;;;2.78;1.25;;;9.40;98.10;;;;;;6068105;23;20014;-82
2021/12/06 11:19:31;;;;;;;1.10;0.55;;;9.60;98.50;;;;;;6092050;23;20081;-81
2021/12/06 11:22:09;;;;;;;1.25;0.70;;;9.80;96.90;;;;;;6066411;23;20486;-81
2021/12/06 11:24:39;;;;;;;1.45;1.10;;;9.70;95.90;;;;;;6068353;23;20003;-81
2021/12/06 11:27:21;;;;;;;0.85;0.75;;;9.70;97.20;;;;;;6066472;23;20339;-82
2021/12/06 11:29:57;;;;;;;0.60;0.60;;;9.70;97.50;;;;;;6091926;23;20026;-83
2021/12/06 11:32:42;;;;;;;0.90;0.65;;;9.70;97.90;;;;;;6066289;23;20113;-81
2021/12/06 11:35:17;;;;;;;0.80;0.80;;;9.70;94.90;;;;;;6066286;23;20007;-83
2021/12/06 11:37:52;;;;;;;1.17;0.73;;;9.70;96.40;;;;;;6066490;23;20004;-82
2021/12/06 11:40:25;;;;;;;0.70;0.70;;;9.70;94.30;;;;;;6066667;23;20015;-81
2021/12/06 11:43:03;;;;;;;0.60;0.60;;;9.60;94.70;;;;;;6067061;23;20405;-82
2021/12/06 11:45:53;;;;;;;0.80;0.80;;;9.70;94.60;;;;;;6066654;23;20010;-82
2021/12/06 11:48:29;;;;;;;0.80;0.80;;;9.70;93.70;;;;;;6092569;23;20058;-82
2021/12/06 11:50:55;;;;;;;1.60;0.68;;;9.60;93.20;;;;;;6094102;23;20350;-82
2021/12/06 11:53:29;;;;;;;0.73;0.57;;;9.60;94.10;;;;;;6092274;23;20008;-82
2021/12/06 11:55:59;;;;;;;1.13;0.85;;;9.60;93.60;;;;;;6092227;23;20345;-81
2021/12/06 11:58:31;;;;;;;1.40;1.00;;;9.70;93.40;;;;;;6068932;23;20041;-81
2021/12/06 12:01:16;;;;;;;0.93;0.82;;;9.70;93.60;;;;;;6067202;23;20018;-81
2021/12/06 12:03:44;;;;;;;0.80;0.80;;;9.80;93.00;;;;;;6066957;23;20038;-83
2021/12/06 12:06:45;;;;;;;1.98;0.95;;;9.80;93.10;;;;;;6067802;23;20098;-84
2021/12/06 12:09:25;;;;;;;1.83;0.90;;;10.10;93.20;;;;;;6015941;23;20194;-83
2021/12/06 12:12:07;;;;;;;1.40;0.90;;;9.90;92.40;;;;;;6066067;23;20018;-83
2021/12/06 12:14:39;;;;;;;0.80;0.80;;;9.90;91.70;;;;;;6066011;23;20473;-83
2021/12/06 12:17:30;;;;;;;0.98;0.85;;;10.40;91.30;;;;;;6066435;23;20022;-82
2021/12/06 12:19:59;;;;;;;1.88;1.02;;;11.20;88.30;;;;;;6075425;23;20030;-86
2021/12/06 12:22:26;;;;;;;0.80;0.80;;;11.80;87.30;;;;;;6068442;23;20355;-84
2021/12/06 12:24:57;;;;;;;1.20;1.00;;;13.20;82.00;;;;;;6067382;23;20006;-84
2021/12/06 12:30:01;;;;;;;1.30;0.93;;;15.40;74.10;;;;;;6101694;23;20033;-89
2021/12/06 12:32:28;;;;;;;1.65;1.35;;;15.60;71.50;;;;;;6072620;23;19999;-91
2021/12/06 12:34:57;;;;;;;0.90;0.90;;;15.90;70.00;;;;;;6095980;23;20263;-88
2021/12/06 12:37:24;;;;;;;1.15;1.05;;;16.00;67.70;;;;;;6073771;23;20006;-87
2021/12/06 12:40:10;;;;;;;1.73;1.00;;;15.50;66.70;;;;;;6096995;23;20006;-89
2021/12/06 12:42:37;;;;;;;2.03;1.08;;;15.80;66.50;;;;;;6069844;23;20010;-88
2021/12/06 12:45:05;;;;;;;1.38;1.20;;;16.20;66.60;;;;;;6071929;23;20099;-86
2021/12/06 12:47:35;;;;;;;1.67;1.38;;;16.30;65.00;;;;;;6070346;23;20030;-89
2021/12/06 12:50:03;;;;;;;1.00;0.95;;;16.20;64.30;;;;;;6072300;23;20097;-85
2021/12/06 12:52:48;;;;;;;1.88;0.80;;;17.20;62.20;;;;;;6069029;23;20003;-86
2021/12/06 12:55:33;;;;;;;1.10;0.98;;;17.60;59.90;;;;;;6073664;23;20014;-81
2021/12/06 12:58:17;;;;;;;2.45;1.15;;;16.90;59.90;;;;;;6074860;23;20011;-87
2021/12/06 13:00:52;;;;;;;1.60;1.00;;;16.30;60.70;;;;;;6069233;23;20014;-84
2021/12/06 13:03:45;;;;;;;1.67;1.08;;;16.90;60.10;;;;;;6073342;23;20018;-87
2021/12/06 13:06:19;;;;;;;1.75;1.23;;;16.90;59.20;;;;;;6070939;23;20375;-88
2021/12/06 13:08:48;;;;;;;1.17;1.10;;;16.50;58.80;;;;;;6074307;23;20003;-87
2021/12/06 13:11:14;;;;;;;2.92;1.20;;;16.10;60.70;;;;;;6095175;23;20589;-83
2021/12/06 13:13:49;;;;;;;0.80;0.80;;;16.60;59.90;;;;;;6067868;23;20776;-86
2021/12/06 13:16:37;;;;;;;1.20;1.10;;;16.80;60.10;;;;;;6068070;23;20450;-83
2021/12/06 13:21:56;;;;;;;;;;;15.90;60.60;;;;;;6098883;23;20117;-86
2021/12/06 13:24:21;;;;;;;0.90;0.85;;;16.00;59.80;;;;;;6045578;23;19912;-83
2021/12/06 13:26:50;;;;;;;2.13;1.20;;;17.00;58.60;;;;;;6093747;23;20033;-86
2021/12/06 13:29:18;;;;;;;1.63;1.38;;;17.20;57.70;;;;;;6067980;23;20006;-82